Time;durP1;ratioP1;P1;durP2;ratioP2;P2;SDS_P1;SDS_P2;PMS_P1;PMS_P2;Temp;Humidity;BMP_temperature;BMP_pressure;BME280_temperature;BME280_humidity;BME280_pressure;Samples;Min_cycle;Max_cycle;Signal;HPM_P1;HPM_P2
2022/11/13 00:01:46;;;;;;;9.30;7.70;;;;;;;10.25;76.18;101321.73;1705470;82;21058;-75
2022/11/13 00:04:32;;;;;;;11.15;7.47;;;;;;;10.25;76.25;101316.92;1689415;82;20957;-74
2022/11/13 00:07:16;;;;;;;7.95;7.10;;;;;;;10.24;76.27;101317.88;1695084;82;21001;-74
2022/11/13 00:10:02;;;;;;;8.55;7.62;;;;;;;10.24;76.32;101321.83;1706773;82;21096;-75
2022/11/13 00:12:47;;;;;;;9.28;7.37;;;;;;;10.24;76.36;101312.59;1715670;82;21965;-73
2022/11/13 00:15:33;;;;;;;9.43;8.03;;;;;;;10.23;76.44;101309.11;1718969;82;21024;-73
2022/11/13 00:18:20;;;;;;;7.87;6.95;;;;;;;10.22;76.54;101315.77;1706912;82;21048;-74
2022/11/13 00:21:09;;;;;;;8.70;7.45;;;;;;;10.21;76.60;101311.41;1710256;82;21005;-74
2022/11/13 00:23:55;;;;;;;8.35;7.50;;;;;;;10.20;76.66;101309.72;1696055;83;21021;-74
2022/11/13 00:26:41;;;;;;;9.03;7.75;;;;;;;10.21;76.72;101313.58;1708127;82;22386;-74
2022/11/13 00:29:27;;;;;;;8.68;7.60;;;;;;;10.21;76.71;101317.53;1711745;82;21002;-75
2022/11/13 00:32:11;;;;;;;8.88;7.83;;;;;;;10.21;76.76;101304.81;1713472;82;20974;-76
2022/11/13 00:34:57;;;;;;;8.80;7.90;;;;;;;10.22;76.85;101304.73;1704915;82;21021;-75
2022/11/13 00:37:43;;;;;;;10.25;8.25;;;;;;;10.20;76.89;101305.76;1675154;83;21041;-73
2022/11/13 00:40:28;;;;;;;9.43;8.43;;;;;;;10.20;76.99;101301.32;1655334;85;22384;-76
2022/11/13 00:43:13;;;;;;;11.33;8.90;;;;;;;10.22;77.06;101298.14;1651097;85;21081;-76
2022/11/13 00:45:58;;;;;;;9.83;8.83;;;;;;;10.20;77.16;101300.00;1652909;85;21023;-76
2022/11/13 00:48:43;;;;;;;10.25;8.50;;;;;;;10.18;77.42;101296.62;1654848;85;21455;-76
2022/11/13 00:51:29;;;;;;;11.22;8.65;;;;;;;10.14;77.67;101299.09;1651771;85;21066;-78
2022/11/13 00:54:15;;;;;;;9.80;8.63;;;;;;;10.13;77.87;101299.16;1671784;84;21872;-74
2022/11/13 00:57:00;;;;;;;11.40;9.28;;;;;;;10.10;78.04;101294.08;1669831;84;21038;-75
2022/11/13 00:59:45;;;;;;;12.88;9.48;;;;;;;10.10;78.17;101292.28;1653829;84;21013;-75
2022/11/13 01:02:31;;;;;;;9.25;8.30;;;;;;;10.09;78.32;101290.59;1674832;83;20985;-75
2022/11/13 01:05:16;;;;;;;9.80;8.20;;;;;;;10.09;78.46;101297.19;1662831;84;21078;-75
2022/11/13 01:08:02;;;;;;;12.68;8.95;;;;;;;10.06;78.64;101293.44;1657317;85;21860;-75
2022/11/13 01:10:47;;;;;;;9.45;8.45;;;;;;;10.04;78.79;101296.66;1625231;85;21024;-75
2022/11/13 01:13:33;;;;;;;10.60;9.38;;;;;;;10.04;78.96;101295.33;1703350;82;21011;-76
2022/11/13 01:16:22;;;;;;;9.90;8.75;;;;;;;10.01;79.19;101286.27;1711435;81;21022;-76
2022/11/13 01:19:08;;;;;;;12.18;10.10;;;;;;;10.01;79.30;101287.58;1720537;82;20955;-76
2022/11/13 01:21:55;;;;;;;11.43;9.73;;;;;;;9.99;79.46;101282.41;1705201;82;21355;-76
2022/11/13 01:24:40;;;;;;;11.18;9.53;;;;;;;9.99;79.52;101285.52;1704067;82;21004;-76
2022/11/13 01:27:24;;;;;;;11.08;9.18;;;;;;;9.98;79.71;101274.11;1697466;82;21012;-77
2022/11/13 01:30:10;;;;;;;10.60;9.50;;;;;;;9.96;79.78;101277.80;1691162;83;21096;-77
2022/11/13 01:32:56;;;;;;;11.38;9.15;;;;;;;9.95;80.01;101274.79;1724519;82;22432;-77
2022/11/13 01:35:41;;;;;;;13.93;9.20;;;;;;;9.94;80.10;101274.38;1699772;82;22015;-76
2022/11/13 01:38:29;;;;;;;10.90;9.13;;;;;;;9.95;80.19;101274.79;1704497;81;21071;-76
2022/11/13 01:41:25;;;;;;;10.72;9.63;;;;;;;9.97;80.22;101279.50;1730321;82;21452;-76
2022/11/13 01:44:14;;;;;;;10.00;8.78;;;;;;;9.98;80.27;101275.91;1720408;81;20964;-81
2022/11/13 01:46:58;;;;;;;10.20;8.43;;;;;;;9.99;80.31;101273.17;1703876;82;21786;-77
2022/11/13 01:49:45;;;;;;;9.58;8.23;;;;;;;9.98;80.33;101264.03;1717803;82;20990;-78
2022/11/13 01:52:35;;;;;;;14.53;8.70;;;;;;;10.00;80.39;101266.09;1711082;82;20946;-77
2022/11/13 01:55:20;;;;;;;10.95;9.18;;;;;;;9.98;80.46;101259.59;1670793;82;21162;-77
2022/11/13 01:58:08;;;;;;;11.22;8.58;;;;;;;9.97;80.50;101261.86;1717016;81;21012;-77
2022/11/13 02:00:54;;;;;;;10.98;8.63;;;;;;;9.98;80.54;101260.07;1718723;81;21060;-77
2022/11/13 02:03:41;;;;;;;9.88;8.08;;;;;;;9.97;80.56;101261.86;1719753;81;21040;-75
2022/11/13 02:06:29;;;;;;;11.20;8.35;;;;;;;9.96;80.62;101266.77;1722426;81;21030;-76
2022/11/13 02:09:19;;;;;;;10.72;8.50;;;;;;;9.94;80.69;101264.70;1720280;81;21040;-76
2022/11/13 02:12:06;;;;;;;12.40;8.85;;;;;;;9.92;80.74;101269.69;1680127;84;21000;-76
2022/11/13 02:14:53;;;;;;;9.33;8.18;;;;;;;9.90;80.77;101261.86;1719047;81;21023;-76
2022/11/13 02:17:46;;;;;;;8.40;7.50;;;;;;;9.90;80.79;101274.22;1714333;81;21870;-76
2022/11/13 02:20:42;;;;;;;9.18;7.25;;;;;;;9.89;80.75;101272.05;1698816;82;21025;-76
2022/11/13 02:23:54;;;;;;;7.85;6.80;;;;;;;9.89;80.70;101275.16;1700047;81;21072;-76
2022/11/13 02:26:39;;;;;;;9.40;7.05;;;;;;;9.87;80.68;101269.14;1710965;82;21008;-77
2022/11/13 02:29:23;;;;;;;7.70;6.72;;;;;;;9.87;80.66;101277.05;1716999;81;21503;-77
2022/11/13 02:32:08;;;;;;;7.67;6.72;;;;;;;9.85;80.63;101276.30;1716593;81;22314;-77
2022/11/13 02:34:53;;;;;;;8.20;6.92;;;;;;;9.85;80.64;101278.47;1720530;81;21084;-77
2022/11/13 02:37:40;;;;;;;7.65;6.58;;;;;;;9.85;80.61;101284.22;1720845;83;21005;-76
2022/11/13 02:40:24;;;;;;;8.48;6.12;;;;;;;9.83;80.61;101276.38;1736270;82;21008;-77
2022/11/13 02:43:09;;;;;;;8.05;5.30;;;;;;;9.83;80.58;101272.41;1721274;81;21004;-76
2022/11/13 02:45:56;;;;;;;6.00;4.55;;;;;;;9.83;80.51;101272.89;1721933;81;22031;-77
2022/11/13 02:48:41;;;;;;;7.22;4.70;;;;;;;9.80;80.41;101277.05;1718509;81;20997;-76
2022/11/13 02:51:26;;;;;;;6.70;4.50;;;;;;;9.80;80.43;101277.05;1726815;81;21004;-77
2022/11/13 02:54:10;;;;;;;5.92;4.08;;;;;;;9.82;80.35;101282.59;1726891;81;21048;-76
2022/11/13 02:56:56;;;;;;;6.40;3.60;;;;;;;9.82;80.29;101277.32;1718800;81;21060;-78
2022/11/13 02:59:41;;;;;;;6.25;3.15;;;;;;;9.79;80.24;101275.36;1706878;82;21949;-77
2022/11/13 03:02:26;;;;;;;3.98;3.22;;;;;;;9.77;80.23;101280.73;1709782;82;21048;-77
2022/11/13 03:05:11;;;;;;;5.78;3.85;;;;;;;9.77;80.24;101281.20;1716490;82;20953;-78
2022/11/13 03:07:56;;;;;;;4.08;3.22;;;;;;;9.78;80.28;101282.42;1704745;82;21531;-77
2022/11/13 03:10:42;;;;;;;4.65;3.40;;;;;;;9.78;80.30;101284.22;1718839;82;21104;-76
2022/11/13 03:13:28;;;;;;;4.03;3.20;;;;;;;9.77;80.29;101283.37;1696982;82;21959;-77
2022/11/13 03:16:15;;;;;;;4.92;3.05;;;;;;;9.74;80.33;101281.75;1713902;81;21042;-76
2022/11/13 03:19:02;;;;;;;4.55;3.20;;;;;;;9.72;80.40;101281.00;1707410;82;20993;-76
2022/11/13 03:21:47;;;;;;;3.85;2.87;;;;;;;9.70;80.45;101282.89;1699725;82;21022;-76
2022/11/13 03:24:32;;;;;;;3.58;2.65;;;;;;;9.69;80.47;101286.47;1714271;82;21456;-76
2022/11/13 03:27:18;;;;;;;4.72;2.72;;;;;;;9.66;80.47;101282.71;1707139;82;21948;-76
2022/11/13 03:30:05;;;;;;;7.42;2.85;;;;;;;9.67;80.51;101283.56;1702467;82;21125;-76
2022/11/13 03:32:54;;;;;;;3.40;2.30;;;;;;;9.68;80.50;101286.09;1705632;82;21088;-76
2022/11/13 03:35:39;;;;;;;5.33;2.30;;;;;;;9.69;80.44;101279.03;1716070;82;21402;-77
2022/11/13 03:38:24;;;;;;;2.50;2.22;;;;;;;9.68;80.38;101278.19;1712495;83;21049;-76
2022/11/13 03:41:09;;;;;;;3.42;2.25;;;;;;;9.67;80.33;101277.81;1714823;82;21850;-76
2022/11/13 03:43:54;;;;;;;2.77;2.52;;;;;;;9.68;80.23;101276.86;1705446;82;21013;-76
2022/11/13 03:46:39;;;;;;;4.15;2.75;;;;;;;9.70;80.15;101277.61;1711391;82;21399;-76
2022/11/13 03:49:25;;;;;;;2.85;2.25;;;;;;;9.71;79.92;101278.45;1700754;82;21017;-76
2022/11/13 03:52:10;;;;;;;3.35;2.30;;;;;;;9.71;79.78;101276.66;1702647;82;20957;-77
2022/11/13 03:54:55;;;;;;;2.40;2.20;;;;;;;9.72;79.62;101281.47;1707609;82;22511;-77
2022/11/13 03:57:40;;;;;;;4.42;2.30;;;;;;;9.70;79.42;101274.97;1703172;82;21389;-76
2022/11/13 04:00:25;;;;;;;7.35;5.20;;;;;;;9.69;79.32;101271.12;1712104;82;21017;-76
2022/11/13 04:03:10;;;;;;;20.75;18.05;;;;;;;9.69;79.25;101273.28;1709458;82;21116;-76
2022/11/13 04:05:56;;;;;;;10.45;8.68;;;;;;;9.70;79.07;101273.66;1706925;82;20921;-76
2022/11/13 04:08:40;;;;;;;74.32;52.03;;;;;;;9.70;78.97;101274.97;1710683;82;21858;-76
2022/11/13 04:11:25;;;;;;;20.10;14.98;;;;;;;9.72;78.88;101269.12;1708094;82;21688;-76
2022/11/13 04:14:10;;;;;;;16.42;13.43;;;;;;;9.73;78.66;101273.92;1705413;82;20997;-77
2022/11/13 04:16:56;;;;;;;4.62;4.03;;;;;;;9.72;78.63;101275.72;1711686;82;21150;-77
2022/11/13 04:19:41;;;;;;;5.80;4.10;;;;;;;9.72;78.50;101273.55;1734278;82;20966;-77
2022/11/13 04:22:26;;;;;;;9.50;8.50;;;;;;;9.68;78.46;101272.06;1719818;82;21969;-77
2022/11/13 04:25:11;;;;;;;6.67;5.83;;;;;;;9.66;78.50;101274.80;1702019;82;22112;-77
2022/11/13 04:27:56;;;;;;;8.70;7.10;;;;;;;9.66;78.47;101278.75;1714936;82;21415;-77
2022/11/13 04:30:42;;;;;;;5.62;3.98;;;;;;;9.66;78.44;101277.91;1724299;82;21029;-77
2022/11/13 04:33:27;;;;;;;4.67;3.50;;;;;;;9.64;78.36;101272.70;1733959;82;21115;-76
2022/11/13 04:36:12;;;;;;;7.75;4.70;;;;;;;9.65;78.35;101265.62;1718285;82;22250;-76
2022/11/13 04:38:56;;;;;;;3.98;3.58;;;;;;;9.67;78.26;101276.96;1727220;82;21001;-76
2022/11/13 04:44:45;;;;;;;4.22;2.80;;;;;;;9.68;78.18;101275.55;1679607;83;21063;-76
2022/11/13 04:47:30;;;;;;;62.80;47.98;;;;;;;9.69;78.09;101276.39;1646769;85;21085;-75
2022/11/13 04:50:16;;;;;;;18.73;14.98;;;;;;;9.69;77.99;101279.03;1645706;85;22015;-76
2022/11/13 04:53:01;;;;;;;9.83;7.95;;;;;;;9.69;77.90;101276.39;1655157;85;21372;-77
2022/11/13 04:55:46;;;;;;;3.83;2.90;;;;;;;9.68;77.75;101281.30;1659369;85;21008;-76
2022/11/13 04:58:31;;;;;;;2.98;2.60;;;;;;;9.68;77.71;101280.82;1663229;85;21090;-76
2022/11/13 05:01:16;;;;;;;2.55;2.30;;;;;;;9.67;77.63;101287.05;1675176;85;21069;-76
2022/11/13 05:04:02;;;;;;;3.83;2.40;;;;;;;9.67;77.54;101284.87;1656453;85;21983;-76
2022/11/13 05:06:48;;;;;;;4.22;2.22;;;;;;;9.67;77.50;101284.87;1658705;85;21372;-76
2022/11/13 05:09:33;;;;;;;2.52;1.87;;;;;;;9.68;77.50;101288.73;1635104;85;21010;-76
2022/11/13 05:12:18;;;;;;;3.37;2.30;;;;;;;9.67;77.44;101280.45;1651446;84;21170;-76
2022/11/13 05:15:05;;;;;;;3.17;2.20;;;;;;;9.66;77.41;101290.63;1652838;85;21094;-76
2022/11/13 05:17:50;;;;;;;2.52;2.30;;;;;;;9.66;77.42;101296.38;1657994;85;21770;-76
2022/11/13 05:20:36;;;;;;;3.70;2.50;;;;;;;9.65;77.47;101296.84;1657860;85;21005;-76
2022/11/13 05:23:21;;;;;;;3.87;2.42;;;;;;;9.65;77.48;101293.33;1653841;85;21073;-76
2022/11/13 05:26:09;;;;;;;3.60;2.80;;;;;;;9.64;77.57;101295.13;1676785;85;21462;-76
2022/11/13 05:28:59;;;;;;;4.45;3.50;;;;;;;9.63;77.61;101300.02;1651932;85;21028;-79
2022/11/13 05:31:44;;;;;;;3.85;3.45;;;;;;;9.67;77.63;101311.25;1664739;85;21867;-77
2022/11/13 05:34:29;;;;;;;4.25;3.70;;;;;;;9.66;77.72;101313.05;1661321;85;21124;-77
2022/11/13 05:37:14;;;;;;;5.10;4.00;;;;;;;9.65;77.74;101306.52;1657163;85;21037;-79
2022/11/13 05:39:59;;;;;;;4.12;3.55;;;;;;;9.66;77.79;101307.77;1655366;85;20968;-78
2022/11/13 05:42:44;;;;;;;5.28;4.03;;;;;;;9.66;77.87;101314.37;1650900;85;21112;-78
2022/11/13 05:45:29;;;;;;;5.40;4.22;;;;;;;9.64;77.92;101310.09;1651889;85;22378;-77
2022/11/13 05:48:14;;;;;;;7.10;4.75;;;;;;;9.65;77.97;101306.52;1652242;85;21033;-78
2022/11/13 05:51:05;;;;;;;5.78;4.45;;;;;;;9.64;78.02;101312.73;1653604;85;21138;-78
2022/11/13 05:53:50;;;;;;;4.60;3.87;;;;;;;9.65;78.05;101313.99;1667682;85;21082;-79
2022/11/13 05:56:36;;;;;;;5.20;4.70;;;;;;;9.68;78.09;101313.80;1670063;85;21035;-79
2022/11/13 05:59:21;;;;;;;5.62;4.60;;;;;;;9.68;78.13;101312.48;1645163;85;21964;-79
2022/11/13 06:02:05;;;;;;;5.37;4.60;;;;;;;9.68;78.16;101313.80;1646712;85;21099;-78
2022/11/13 06:04:51;;;;;;;5.72;4.50;;;;;;;9.69;78.21;101315.96;1641404;85;21021;-79
2022/11/13 06:07:36;;;;;;;5.50;4.17;;;;;;;9.73;78.17;101318.78;1626982;85;22379;-79
2022/11/13 06:10:21;;;;;;;5.65;4.30;;;;;;;9.76;78.14;101319.93;1640246;85;20957;-78
2022/11/13 06:13:06;;;;;;;6.30;4.30;;;;;;;9.80;78.10;101320.11;1643151;85;21848;-79
2022/11/13 06:15:52;;;;;;;4.17;3.77;;;;;;;9.82;77.96;101316.05;1625077;86;21845;-78
2022/11/13 06:18:38;;;;;;;7.90;3.95;;;;;;;9.84;77.90;101313.69;1635392;86;21025;-78
2022/11/13 06:21:26;;;;;;;5.12;4.10;;;;;;;9.84;77.81;101313.69;1645436;85;21319;-80
2022/11/13 06:24:12;;;;;;;7.80;3.90;;;;;;;9.83;77.72;101310.67;1645575;85;20990;-78
2022/11/13 06:26:57;;;;;;;4.90;3.60;;;;;;;9.86;77.69;101314.47;1627996;86;22250;-79
2022/11/13 06:29:42;;;;;;;4.30;3.62;;;;;;;9.88;77.67;101315.22;1629191;86;21134;-79
2022/11/13 06:32:27;;;;;;;5.62;3.75;;;;;;;9.93;77.66;101313.59;1652294;85;20988;-79
2022/11/13 06:35:13;;;;;;;4.45;3.67;;;;;;;9.93;77.43;101314.91;1644166;86;21068;-79
2022/11/13 06:37:58;;;;;;;4.28;3.70;;;;;;;9.93;77.35;101307.00;1630796;86;20977;-79
2022/11/13 06:40:43;;;;;;;4.10;3.52;;;;;;;9.93;77.32;101305.68;1645870;85;21969;-78
2022/11/13 06:43:29;;;;;;;5.85;3.75;;;;;;;9.95;77.23;101307.30;1651170;85;21451;-77
2022/11/13 06:46:21;;;;;;;5.40;3.87;;;;;;;9.97;77.19;101310.69;1647906;85;21469;-79
2022/11/13 06:49:06;;;;;;;4.60;3.80;;;;;;;10.02;77.14;101307.75;1718300;80;21055;-77
2022/11/13 06:51:52;;;;;;;4.90;4.20;;;;;;;10.04;77.07;101301.93;1701232;83;21060;-79
2022/11/13 06:54:39;;;;;;;4.55;4.15;;;;;;;10.10;76.95;101308.59;1702780;83;21368;-79
2022/11/13 06:57:24;;;;;;;4.33;3.80;;;;;;;10.10;76.60;101302.84;1697165;83;21146;-79
2022/11/13 07:00:11;;;;;;;4.17;3.70;;;;;;;10.12;76.58;101305.39;1694958;83;21143;-79
2022/11/13 07:02:56;;;;;;;5.70;3.80;;;;;;;10.15;76.55;101303.89;1716413;82;21504;-79
2022/11/13 07:05:41;;;;;;;4.65;3.62;;;;;;;10.19;76.48;101301.42;1723248;82;21048;-79
2022/11/13 07:08:27;;;;;;;5.67;3.50;;;;;;;10.24;76.38;101296.75;1719024;82;21850;-79
2022/11/13 07:11:16;;;;;;;4.28;3.60;;;;;;;10.28;76.20;101299.08;1712265;82;21044;-80
2022/11/13 07:14:19;;;;;;;4.42;3.47;;;;;;;10.30;76.03;101297.19;1669644;82;21440;-78
2022/11/13 07:17:05;;;;;;;6.35;3.60;;;;;;;10.32;75.89;101302.37;1707270;82;21515;-80
2022/11/13 07:19:50;;;;;;;4.08;3.33;;;;;;;10.34;75.77;101298.33;1718306;82;21068;-81
2022/11/13 07:22:36;;;;;;;3.92;3.47;;;;;;;10.37;75.65;101298.98;1704196;82;22354;-80
2022/11/13 07:25:22;;;;;;;5.40;3.67;;;;;;;10.38;75.41;101299.34;1721044;82;20959;-82
2022/11/13 07:28:07;;;;;;;4.80;4.10;;;;;;;10.39;75.33;101304.16;1712476;82;21008;-81
2022/11/13 07:30:52;;;;;;;3.95;3.40;;;;;;;10.40;75.09;101300.56;1710990;82;21084;-82
2022/11/13 07:33:39;;;;;;;4.67;3.60;;;;;;;10.40;75.13;101302.73;1721951;82;21074;-80
2022/11/13 07:36:23;;;;;;;4.33;3.70;;;;;;;10.47;75.17;101307.16;1727350;81;21930;-79
2022/11/13 07:39:08;;;;;;;5.45;3.50;;;;;;;10.51;75.07;101297.60;1664464;83;21488;-80
2022/11/13 07:41:55;;;;;;;5.17;3.62;;;;;;;10.56;75.04;101301.28;1644899;85;21086;-81
2022/11/13 07:44:41;;;;;;;4.25;3.70;;;;;;;10.58;74.70;101298.91;1662468;85;21041;-82
2022/11/13 07:47:26;;;;;;;4.58;3.98;;;;;;;10.59;74.53;101298.44;1654501;85;21072;-80
2022/11/13 07:50:12;;;;;;;5.25;3.62;;;;;;;10.59;74.36;101304.56;1654525;85;21862;-80
2022/11/13 07:52:58;;;;;;;4.37;3.90;;;;;;;10.62;74.36;101302.22;1656008;84;20973;-80
2022/11/13 07:55:44;;;;;;;4.00;3.60;;;;;;;10.66;74.29;101302.86;1728965;82;21524;-80
2022/11/13 07:58:29;;;;;;;5.45;4.10;;;;;;;10.70;74.24;101306.98;1702011;82;21017;-79
2022/11/13 08:01:16;;;;;;;4.35;3.95;;;;;;;10.74;74.01;101303.21;1704207;82;21025;-80
2022/11/13 08:04:01;;;;;;;4.50;3.77;;;;;;;10.76;73.87;101301.31;1669106;84;22972;-78
2022/11/13 08:06:46;;;;;;;4.60;4.08;;;;;;;10.82;73.92;101303.56;1657583;85;21072;-79
2022/11/13 08:09:32;;;;;;;4.95;3.83;;;;;;;10.87;73.63;101300.12;1624779;85;21077;-79
2022/11/13 08:12:18;;;;;;;4.08;3.58;;;;;;;10.91;73.60;101307.41;1648593;85;21230;-79
2022/11/13 08:15:25;;;;;;;4.72;3.80;;;;;;;10.97;73.39;101303.02;1637645;85;21069;-78
2022/11/13 08:18:10;;;;;;;5.05;3.52;;;;;;;10.98;73.04;101308.67;1714921;82;21956;-78
2022/11/13 08:20:55;;;;;;;6.47;3.80;;;;;;;11.02;72.99;101306.21;1699982;82;20980;-78
2022/11/13 08:23:41;;;;;;;4.17;3.50;;;;;;;11.11;72.57;101301.64;1692862;83;20970;-81
2022/11/13 08:26:26;;;;;;;5.08;3.17;;;;;;;11.16;72.56;101304.80;1710775;82;21056;-77
2022/11/13 08:29:11;;;;;;;4.45;3.47;;;;;;;11.22;72.21;101304.41;1711310;82;21004;-77
2022/11/13 08:31:56;;;;;;;3.37;2.80;;;;;;;11.25;71.54;101300.70;1712174;82;21961;-77
2022/11/13 08:34:41;;;;;;;3.20;2.90;;;;;;;11.29;71.70;101303.49;1689302;83;20991;-77
2022/11/13 08:37:26;;;;;;;3.95;2.70;;;;;;;11.33;71.18;101303.67;1695908;83;21067;-78
2022/11/13 08:40:11;;;;;;;3.20;2.62;;;;;;;11.36;70.62;101300.33;1694976;82;21538;-78
2022/11/13 08:43:01;;;;;;;3.33;2.87;;;;;;;11.38;70.30;101304.19;1694841;83;21067;-77
2022/11/13 08:45:50;;;;;;;2.80;2.60;;;;;;;11.40;70.27;101299.19;1705668;82;21963;-76
2022/11/13 08:48:34;;;;;;;3.12;2.67;;;;;;;11.48;70.10;101303.94;1689607;83;20982;-79
2022/11/13 08:51:19;;;;;;;3.27;2.98;;;;;;;11.51;69.63;101293.64;1687275;83;21075;-79
2022/11/13 08:54:04;;;;;;;3.35;3.00;;;;;;;11.52;69.56;101296.17;1656199;85;21037;-80
2022/11/13 08:56:49;;;;;;;4.55;3.17;;;;;;;11.56;69.11;101291.51;1668747;84;21067;-81
2022/11/13 08:59:35;;;;;;;3.40;3.10;;;;;;;11.58;68.90;101292.24;1661152;85;21850;-82
2022/11/13 09:02:20;;;;;;;3.52;3.00;;;;;;;11.66;68.60;101292.09;1671858;83;21148;-80
2022/11/13 09:05:06;;;;;;;3.25;2.92;;;;;;;11.78;68.46;101294.86;1697381;82;21003;-76
2022/11/13 09:07:59;;;;;;;2.87;2.60;;;;;;;11.79;67.35;101284.16;1678769;83;21309;-78
2022/11/13 09:10:45;;;;;;;2.95;2.52;;;;;;;11.80;67.35;101286.36;1677658;83;21041;-75
2022/11/13 09:13:32;;;;;;;3.10;2.80;;;;;;;11.84;67.21;101277.24;1677100;83;21076;-74
2022/11/13 09:16:17;;;;;;;4.40;2.80;;;;;;;11.90;67.23;101276.82;1678863;83;20977;-74
2022/11/13 09:19:03;;;;;;;2.87;2.60;;;;;;;11.95;67.01;101272.03;1674078;83;21063;-74
2022/11/13 09:21:50;;;;;;;3.25;2.95;;;;;;;12.01;66.79;101275.58;1661759;84;21345;-76
2022/11/13 09:24:35;;;;;;;3.90;2.75;;;;;;;12.02;66.13;101281.24;1709193;82;21051;-75
2022/11/13 09:27:20;;;;;;;3.17;2.87;;;;;;;12.03;66.25;101273.18;1681282;84;21751;-75
2022/11/13 09:30:07;;;;;;;2.80;2.60;;;;;;;12.09;66.19;101280.34;1704996;82;21010;-72
2022/11/13 09:32:54;;;;;;;3.52;2.90;;;;;;;12.16;65.84;101266.55;1682276;83;21019;-73
2022/11/13 09:35:39;;;;;;;3.33;2.70;;;;;;;12.18;65.53;101267.77;1703897;83;21003;-69
2022/11/13 09:38:24;;;;;;;3.12;2.60;;;;;;;12.15;65.39;101272.78;1665373;83;21024;-72
2022/11/13 09:41:13;;;;;;;3.00;2.70;;;;;;;12.15;65.41;101269.28;1652018;86;21928;-68
2022/11/13 09:44:02;;;;;;;3.47;2.83;;;;;;;12.17;65.39;101269.56;1681068;83;21101;-69
2022/11/13 09:47:06;;;;;;;4.15;2.70;;;;;;;12.20;65.36;101256.09;1706033;82;21043;-73
2022/11/13 09:50:08;;;;;;;3.00;2.60;;;;;;;12.29;65.45;101259.88;1702668;82;21497;-74
2022/11/13 09:52:53;;;;;;;3.55;3.25;;;;;;;12.45;65.52;101259.14;1673777;83;21113;-74
2022/11/13 09:55:44;;;;;;;3.37;3.08;;;;;;;12.59;64.97;101251.01;1681237;83;22266;-76
2022/11/13 09:58:48;;;;;;;3.62;3.15;;;;;;;12.65;64.75;101254.18;1707328;82;21706;-72
2022/11/13 10:01:44;;;;;;;4.60;3.00;;;;;;;12.65;64.34;101264.78;1669027;83;21505;-75
2022/11/13 10:04:57;;;;;;;3.42;3.12;;;;;;;12.58;64.18;101256.43;1630736;83;21044;-77
2022/11/13 10:08:03;;;;;;;3.95;3.55;;;;;;;12.51;64.29;101246.75;1669414;83;21065;-77
2022/11/13 10:11:13;;;;;;;4.47;3.10;;;;;;;12.54;64.69;101251.81;1711361;82;22530;-76
2022/11/13 10:14:01;;;;;;;3.12;2.83;;;;;;;12.64;64.69;101253.30;1681526;85;21012;-75
2022/11/13 10:17:03;;;;;;;3.90;3.27;;;;;;;12.65;64.31;101253.70;1707431;82;21061;-75
2022/11/13 10:20:03;;;;;;;3.35;2.98;;;;;;;12.63;64.42;101254.75;1710824;82;21055;-74
2022/11/13 10:22:52;;;;;;;6.17;3.33;;;;;;;12.65;64.21;101244.42;1710811;82;21047;-74
2022/11/13 10:25:37;;;;;;;3.40;3.10;;;;;;;12.63;63.85;101244.14;1706097;82;21562;-76
2022/11/13 10:28:25;;;;;;;3.08;2.77;;;;;;;12.59;63.98;101244.38;1684665;82;21051;-76
2022/11/13 10:31:11;;;;;;;3.10;2.80;;;;;;;12.71;64.01;101249.73;1709081;84;21089;-76
2022/11/13 10:33:56;;;;;;;3.00;2.70;;;;;;;12.74;63.82;101241.09;1710185;82;21434;-76
2022/11/13 10:37:14;;;;;;;2.80;2.42;;;;;;;12.79;63.82;101247.36;1712217;82;21035;-76
2022/11/13 10:39:59;;;;;;;2.80;2.40;;;;;;;12.77;63.41;101242.17;1711253;82;22939;-76
2022/11/13 10:42:45;;;;;;;3.67;2.62;;;;;;;12.65;63.47;101236.95;1695036;83;20952;-76
2022/11/13 10:45:30;;;;;;;3.30;2.50;;;;;;;12.64;63.94;101232.10;1725074;82;21031;-76
2022/11/13 10:48:21;;;;;;;3.20;2.33;;;;;;;12.64;63.79;101233.42;1710286;82;21379;-77
2022/11/13 10:51:29;;;;;;;2.52;2.33;;;;;;;12.63;63.94;101234.39;1719130;82;20940;-76
2022/11/13 10:54:29;;;;;;;2.55;2.35;;;;;;;12.59;63.71;101236.44;1718935;82;22252;-77
2022/11/13 10:57:32;;;;;;;2.72;2.40;;;;;;;12.57;63.82;101237.52;1718975;83;20945;-77
2022/11/13 11:00:27;;;;;;;3.80;2.50;;;;;;;12.60;64.12;101236.80;1718790;83;21096;-76
2022/11/13 11:03:22;;;;;;;2.87;2.30;;;;;;;12.65;63.77;101238.28;1724951;82;21068;-77
2022/11/13 11:06:07;;;;;;;3.00;2.60;;;;;;;12.64;63.60;101235.23;1743834;82;21382;-77
2022/11/13 11:08:52;;;;;;;2.92;2.50;;;;;;;12.65;63.72;101219.72;1743724;82;21582;-77
2022/11/13 11:15:00;;;;;;;3.22;2.33;;;;;;;12.81;63.99;101214.94;1667380;85;21000;-77
2022/11/13 11:18:02;;;;;;;2.83;2.30;;;;;;;13.01;62.99;101216.92;1684515;82;21023;-77
2022/11/13 11:20:55;;;;;;;2.35;2.10;;;;;;;13.15;62.59;101214.08;1706804;82;21449;-77
2022/11/13 11:23:58;;;;;;;2.60;2.27;;;;;;;13.17;61.73;101206.00;1701451;82;22487;-77
2022/11/13 11:27:12;;;;;;;3.00;2.50;;;;;;;13.09;61.70;101205.25;1681383;85;21443;-77
2022/11/13 11:30:03;;;;;;;3.20;2.37;;;;;;;12.94;61.45;101206.45;1752982;80;20960;-77
2022/11/13 11:33:23;;;;;;;3.10;2.37;;;;;;;12.85;61.79;101196.53;1752633;82;21398;-77
2022/11/13 11:36:30;;;;;;;3.45;2.70;;;;;;;12.78;61.89;101192.66;1752285;80;21030;-77
2022/11/13 11:39:36;;;;;;;4.67;2.17;;;;;;;12.74;61.92;101197.35;1740125;80;21860;-77
2022/11/13 11:42:49;;;;;;;2.65;2.33;;;;;;;12.82;62.04;101203.37;1747833;80;20996;-76
2022/11/13 11:45:42;;;;;;;2.40;2.05;;;;;;;12.94;61.71;101191.02;1709959;80;21071;-78
2022/11/13 11:48:29;;;;;;;3.47;2.13;;;;;;;13.12;62.03;101188.25;1752666;80;21020;-78
2022/11/13 11:51:35;;;;;;;3.52;2.10;;;;;;;13.51;62.04;101187.02;1752662;81;20960;-77
2022/11/13 11:54:41;;;;;;;2.70;1.98;;;;;;;14.02;61.97;101188.64;1741430;80;21862;-78
2022/11/13 11:57:52;;;;;;;2.20;1.95;;;;;;;14.50;60.71;101190.09;1725770;82;20968;-78
2022/11/13 12:00:38;;;;;;;3.35;2.10;;;;;;;14.75;58.61;101191.05;1755091;80;21388;-78
2022/11/13 12:03:50;;;;;;;3.25;2.00;;;;;;;14.63;57.36;101181.94;1751529;80;21019;-78
2022/11/13 12:07:00;;;;;;;2.95;2.10;;;;;;;14.55;57.98;101193.20;1755635;80;21355;-77
2022/11/13 12:10:18;;;;;;;4.55;2.37;;;;;;;14.75;57.75;101187.06;1754993;80;21965;-76
2022/11/13 12:13:27;;;;;;;2.52;2.20;;;;;;;14.81;57.75;101194.53;1753967;80;21051;-76
2022/11/13 12:16:18;;;;;;;3.62;2.22;;;;;;;14.80;56.81;101189.35;1752708;81;21075;-77
2022/11/13 12:19:30;;;;;;;3.42;2.20;;;;;;;14.79;57.41;101189.00;1730781;81;21042;-76
2022/11/13 12:22:35;;;;;;;3.98;2.22;;;;;;;14.68;56.52;101194.38;1726936;83;21509;-77
2022/11/13 12:25:56;;;;;;;2.77;2.40;;;;;;;14.41;57.14;101187.68;1726940;82;21871;-77
2022/11/13 12:28:56;;;;;;;3.27;2.10;;;;;;;14.21;57.50;101182.67;1718380;81;20983;-80
2022/11/13 12:32:23;;;;;;;4.72;2.50;;;;;;;13.95;58.04;101181.28;1719412;81;21007;-78
2022/11/13 12:35:22;;;;;;;4.17;2.52;;;;;;;13.80;58.44;101179.84;1687358;83;20980;-78
2022/11/13 12:38:31;;;;;;;3.52;2.58;;;;;;;13.59;58.95;101178.42;1672751;84;21553;-78
2022/11/13 12:41:32;;;;;;;3.62;2.47;;;;;;;13.41;59.36;101178.94;1668084;84;21010;-78
2022/11/13 12:44:26;;;;;;;4.87;2.50;;;;;;;13.28;59.82;101166.25;1648608;84;20889;-78
2022/11/13 12:47:11;;;;;;;3.70;2.60;;;;;;;13.15;60.22;101170.80;1684214;83;21454;-78
2022/11/13 12:50:03;;;;;;;3.58;2.60;;;;;;;13.13;60.58;101177.55;1635365;86;20996;-78
2022/11/13 12:53:02;;;;;;;3.80;2.90;;;;;;;13.15;60.85;101181.41;1678302;84;20988;-78
2022/11/13 12:56:00;;;;;;;3.20;2.70;;;;;;;13.18;60.79;101183.33;1676438;85;22601;-79
2022/11/13 12:58:59;;;;;;;5.03;2.85;;;;;;;13.12;60.87;101184.27;1683053;83;21515;-79
2022/11/13 13:02:14;;;;;;;3.22;2.37;;;;;;;13.05;61.10;101185.25;1686553;83;21507;-79
2022/11/13 13:05:23;;;;;;;;;;;;;;;13.00;61.10;101187.88;1669503;85;20972;-77
2022/11/13 13:09:07;;;;;;;3.98;2.47;;;;;;;12.84;61.18;101181.11;1684926;84;20174;-77
2022/11/13 13:12:20;;;;;;;3.90;2.95;;;;;;;12.74;61.53;101178.80;1681036;85;21027;-78
2022/11/13 13:15:36;;;;;;;3.30;3.00;;;;;;;12.67;61.79;101188.64;1686722;83;20957;-78
2022/11/13 13:18:36;;;;;;;4.55;4.08;;;;;;;12.57;61.98;101182.70;1681390;82;20977;-78